createdAt,value
2024-02-13T00:01:52.852Z,2.30
2024-02-13T00:05:56.257Z,2.22
2024-02-13T00:09:59.429Z,1.92
2024-02-13T00:14:02.551Z,2.15
2024-02-13T00:18:07.316Z,2.25
2024-02-13T00:22:13.495Z,2.45
2024-02-13T00:26:17.573Z,2.50
2024-02-13T00:30:20.745Z,1.90
2024-02-13T00:34:46.069Z,2.08
2024-02-13T00:38:49.257Z,1.83
2024-02-13T00:42:53.985Z,1.90
2024-02-13T00:46:58.664Z,1.95
2024-02-13T00:51:02.173Z,1.92
2024-02-13T00:55:08.737Z,1.67
2024-02-13T00:59:12.279Z,2.13
2024-02-13T01:03:15.448Z,2.22
2024-02-13T01:07:19.347Z,2.28
2024-02-13T01:11:22.305Z,2.03
2024-02-13T01:15:25.409Z,3.40
2024-02-13T01:19:28.581Z,5.25
2024-02-13T01:23:31.623Z,4.32
2024-02-13T01:27:34.820Z,3.00
2024-02-13T01:31:38.919Z,1.63
2024-02-13T01:35:43.600Z,1.70
2024-02-13T01:39:46.663Z,1.85
2024-02-13T01:43:50.594Z,2.03
2024-02-13T01:47:55.202Z,1.90
2024-02-13T01:52:00.318Z,2.00
2024-02-13T01:56:06.419Z,1.73
2024-02-13T02:00:15.672Z,1.83
2024-02-13T02:04:19.921Z,2.13
2024-02-13T02:08:23.578Z,2.67
2024-02-13T02:12:27.261Z,3.47
2024-02-13T02:16:30.301Z,2.90
2024-02-13T02:20:33.623Z,3.85
2024-02-13T02:24:36.689Z,3.30
2024-02-13T02:28:44.538Z,2.42
2024-02-13T02:32:51.014Z,2.97
2024-02-13T02:36:54.067Z,1.75
2024-02-13T02:40:57.363Z,1.70
2024-02-13T02:45:00.424Z,2.10
2024-02-13T02:49:04.007Z,2.33
2024-02-13T02:53:07.151Z,3.00
2024-02-13T02:57:11.807Z,3.17
2024-02-13T03:01:15.172Z,2.28
2024-02-13T03:05:18.294Z,2.65
2024-02-13T03:09:21.691Z,1.90
2024-02-13T03:13:24.582Z,2.00
2024-02-13T03:17:27.924Z,2.08
2024-02-13T03:21:30.901Z,1.60
2024-02-13T03:25:33.900Z,3.10
2024-02-13T03:29:55.063Z,2.28
2024-02-13T03:33:58.119Z,2.58
2024-02-13T03:38:01.156Z,4.15
2024-02-13T03:42:04.365Z,2.47
2024-02-13T03:46:07.446Z,2.17
2024-02-13T03:50:10.748Z,2.85
2024-02-13T03:54:13.869Z,1.88
2024-02-13T03:58:16.859Z,2.00
2024-02-13T04:02:19.931Z,2.20
2024-02-13T04:06:23.182Z,5.22
2024-02-13T04:10:26.224Z,5.28
2024-02-13T04:14:33.642Z,4.15
2024-02-13T04:18:36.795Z,3.42
2024-02-13T04:22:39.972Z,4.22
2024-02-13T04:26:43.763Z,4.82
2024-02-13T04:30:46.832Z,4.47
2024-02-13T04:34:49.936Z,4.05
2024-02-13T04:38:53.074Z,3.42
2024-02-13T04:42:56.140Z,3.60
2024-02-13T04:46:59.021Z,3.25
2024-02-13T04:51:02.828Z,2.30
2024-02-13T04:55:06.197Z,2.30
2024-02-13T04:59:10.961Z,1.90
2024-02-13T05:03:27.287Z,1.80
2024-02-13T05:07:33.076Z,2.03
2024-02-13T05:11:35.994Z,2.10
2024-02-13T05:15:38.982Z,2.00
2024-02-13T05:19:42.447Z,2.03
2024-02-13T05:23:45.534Z,2.30
2024-02-13T05:27:50.115Z,2.10
2024-02-13T05:31:54.072Z,11.98
2024-02-13T05:35:58.117Z,8.30
2024-02-13T05:40:01.027Z,5.93
2024-02-13T05:44:04.540Z,6.28
2024-02-13T05:48:08.825Z,5.25
2024-02-13T05:52:11.861Z,2.40
2024-02-13T05:56:25.996Z,2.28
2024-02-13T06:00:32.546Z,2.75
2024-02-13T06:04:36.324Z,9.40
2024-02-13T06:08:39.337Z,9.40
2024-02-13T06:12:43.121Z,5.93
2024-02-13T06:16:46.232Z,4.22
2024-02-13T06:20:49.268Z,4.15
2024-02-13T06:24:52.315Z,2.33
2024-02-13T06:28:56.310Z,2.63
2024-02-13T06:32:59.647Z,3.70
2024-02-13T06:37:03.169Z,3.47
2024-02-13T06:41:12.006Z,3.67
2024-02-13T06:45:15.318Z,3.28
2024-02-13T06:49:18.556Z,2.70
2024-02-13T06:53:21.891Z,2.83
2024-02-13T06:57:25.303Z,3.30
2024-02-13T07:01:30.904Z,3.55
2024-02-13T07:05:34.053Z,3.92
2024-02-13T07:09:37.403Z,4.10
2024-02-13T07:13:40.535Z,2.60
2024-02-13T07:17:52.707Z,2.10
2024-02-13T07:22:02.710Z,2.58
2024-02-13T07:26:05.866Z,6.03
2024-02-13T07:30:10.024Z,5.50
2024-02-13T07:34:14.782Z,5.68
2024-02-13T07:38:17.944Z,6.63
2024-02-13T07:42:22.385Z,7.78
2024-02-13T07:46:25.464Z,6.50
2024-02-13T07:50:29.677Z,6.80
2024-02-13T07:54:33.008Z,7.07
2024-02-13T07:58:37.496Z,5.00
2024-02-13T08:02:41.401Z,4.15
2024-02-13T08:06:44.501Z,4.30
2024-02-13T08:10:48.898Z,4.78
2024-02-13T08:14:53.213Z,6.10
2024-02-13T08:18:57.197Z,7.30
2024-02-13T08:23:01.149Z,12.45
2024-02-13T08:27:07.768Z,11.10
2024-02-13T08:35:23.128Z,8.38
2024-02-13T08:39:26.227Z,8.80
2024-02-13T08:43:30.274Z,7.95
2024-02-13T08:47:34.357Z,9.88
2024-02-13T08:51:39.959Z,7.88
2024-02-13T08:55:49.632Z,5.30
2024-02-13T08:59:59.944Z,4.50
2024-02-13T09:04:08.060Z,4.85
2024-02-13T09:08:15.315Z,3.67
2024-02-13T09:12:25.046Z,2.97
2024-02-13T09:16:42.810Z,3.33
2024-02-13T09:21:30.283Z,4.00
2024-02-13T09:25:36.628Z,3.70
2024-02-13T09:39:23.760Z,2.40
2024-02-13T09:47:35.149Z,2.58
2024-02-13T09:51:42.209Z,2.30
2024-02-13T09:55:49.738Z,2.28
2024-02-13T09:59:58.498Z,2.80
2024-02-13T10:04:06.032Z,2.40
2024-02-13T10:08:37.828Z,2.15
2024-02-13T10:13:16.030Z,1.92
2024-02-13T10:17:31.415Z,2.08
2024-02-13T10:21:37.320Z,1.88
2024-02-13T10:25:46.182Z,1.75
2024-02-13T10:30:03.238Z,2.00
2024-02-13T10:34:23.521Z,2.00
2024-02-13T10:39:13.243Z,1.40
2024-02-13T10:43:20.205Z,1.77
2024-02-13T10:47:30.153Z,1.55
2024-02-13T10:51:41.098Z,1.88
2024-02-13T10:55:47.971Z,1.48
2024-02-13T10:59:56.969Z,2.15
2024-02-13T11:04:08.504Z,2.38
2024-02-13T11:08:39.173Z,1.80
2024-02-13T11:13:22.288Z,1.88
2024-02-13T11:17:36.304Z,2.33
2024-02-13T11:21:56.692Z,1.90
2024-02-13T11:26:53.629Z,1.98
2024-02-13T11:30:58.647Z,1.67
2024-02-13T11:35:32.415Z,1.90
2024-02-13T11:39:48.709Z,1.30
2024-02-13T13:03:54.024Z,1.10
2024-02-13T13:08:00.758Z,1.20
2024-02-13T13:12:07.679Z,1.02
2024-02-13T13:16:13.980Z,0.95
2024-02-13T13:20:20.294Z,0.90
2024-02-13T13:24:25.390Z,1.00
2024-02-13T13:28:30.885Z,1.20
2024-02-13T13:32:35.456Z,0.90
2024-02-13T13:36:41.149Z,1.15
2024-02-13T13:40:50.928Z,1.02
2024-02-13T13:44:54.903Z,0.80
2024-02-13T13:49:32.918Z,1.35
2024-02-13T13:53:36.886Z,1.27
2024-02-13T13:57:40.352Z,1.40
2024-02-13T14:01:44.642Z,1.10
2024-02-13T14:05:47.878Z,0.95
2024-02-13T14:09:53.200Z,0.75
2024-02-13T14:13:58.715Z,0.90
2024-02-13T14:18:03.359Z,0.90
2024-02-13T14:22:13.197Z,0.75
2024-02-13T14:26:17.696Z,0.88
2024-02-13T14:30:59.284Z,1.10
2024-02-13T14:35:09.169Z,0.90
2024-02-13T14:49:05.456Z,1.00
2024-02-13T14:54:01.856Z,1.00
2024-02-13T14:58:23.056Z,1.10
2024-02-13T15:13:17.100Z,0.85
2024-02-13T15:17:23.667Z,0.90
2024-02-13T15:27:49.136Z,0.73
2024-02-13T17:12:01.850Z,1.20
2024-02-13T17:16:09.543Z,1.17
2024-02-13T17:20:15.271Z,1.95
2024-02-13T17:24:23.403Z,1.50
2024-02-13T17:29:21.863Z,2.05
2024-02-13T17:33:26.250Z,1.95
2024-02-13T17:37:33.689Z,1.73
2024-02-13T17:41:38.657Z,1.83
2024-02-13T17:45:46.751Z,1.60
2024-02-13T17:49:54.741Z,1.70
2024-02-13T17:54:45.117Z,1.85
2024-02-13T17:59:09.334Z,2.00
2024-02-13T18:03:25.970Z,1.80
2024-02-13T18:07:30.135Z,1.77
2024-02-13T18:11:34.810Z,2.22
2024-02-13T18:15:54.674Z,6.73
2024-02-13T18:19:57.844Z,4.68
2024-02-13T18:24:02.690Z,4.32
2024-02-13T18:28:07.596Z,4.20
2024-02-13T18:32:13.518Z,5.70
2024-02-13T18:36:19.148Z,6.07
2024-02-13T18:40:32.376Z,9.50
2024-02-13T18:44:38.284Z,6.72
2024-02-13T18:48:42.870Z,4.15
2024-02-13T18:52:47.135Z,2.67
2024-02-13T18:56:52.919Z,3.58
2024-02-13T19:00:59.519Z,2.70
2024-02-13T19:05:02.970Z,2.13
2024-02-13T19:09:11.026Z,1.90
2024-02-13T19:13:15.312Z,2.33
2024-02-13T19:17:21.838Z,2.90
2024-02-13T19:21:26.195Z,2.30
2024-02-13T19:25:33.708Z,1.60
2024-02-13T19:29:38.463Z,1.88
2024-02-13T19:33:42.884Z,1.63
2024-02-13T19:37:50.675Z,1.60
2024-02-13T19:42:05.293Z,1.85
2024-02-13T19:51:09.388Z,2.38
2024-02-13T19:55:34.693Z,1.58
2024-02-13T20:00:47.406Z,1.50
2024-02-13T20:05:19.839Z,1.63
2024-02-13T20:09:53.089Z,1.70
2024-02-13T20:14:24.683Z,2.88
2024-02-13T20:18:33.417Z,2.75
2024-02-13T20:22:41.982Z,5.45
2024-02-13T20:26:46.935Z,3.20
2024-02-13T20:30:53.950Z,2.15
2024-02-13T20:35:10.139Z,1.98
2024-02-13T20:39:16.436Z,1.88
2024-02-13T20:43:19.818Z,1.92
2024-02-13T20:51:48.512Z,2.15
2024-02-13T20:55:54.551Z,2.22
2024-02-13T21:00:34.744Z,4.18
2024-02-13T21:04:42.854Z,3.25
2024-02-13T21:09:51.127Z,2.65
2024-02-13T21:13:47.407Z,1.90
2024-02-13T21:18:08.083Z,1.70
2024-02-13T21:22:32.542Z,2.13
2024-02-13T21:27:35.559Z,2.10
2024-02-13T21:50:46.894Z,2.20
2024-02-13T21:54:50.472Z,3.50
2024-02-13T21:58:53.881Z,2.92
2024-02-13T22:03:08.946Z,2.92
2024-02-13T22:07:12.292Z,4.50
2024-02-13T22:11:15.492Z,4.32
2024-02-13T22:15:22.313Z,4.32
2024-02-13T22:19:25.940Z,5.00
2024-02-13T22:23:30.896Z,3.38
2024-02-13T22:27:36.713Z,2.72
2024-02-13T22:31:41.829Z,3.50
2024-02-13T22:35:45.163Z,3.95
2024-02-13T22:39:53.668Z,3.95
2024-02-13T22:44:08.657Z,3.88
2024-02-13T22:48:24.702Z,2.90
2024-02-13T22:52:38.392Z,2.88
2024-02-13T22:56:51.840Z,2.75
2024-02-13T23:01:05.615Z,2.33
2024-02-13T23:05:18.089Z,3.15
2024-02-13T23:14:42.711Z,2.50
2024-02-13T23:19:16.652Z,2.90
2024-02-13T23:23:30.444Z,2.17
2024-02-13T23:27:41.933Z,2.45
2024-02-13T23:32:13.853Z,3.20
2024-02-13T23:42:24.900Z,2.92
2024-02-13T23:53:05.519Z,2.45
